CW1729 Weather Reports


Display with metric or nautical units.
time (UTC)temp
F
wind
direction
speed
MPH
gust
MPH
rain 1hr
in
rain 24hr
in
rain mn
in
humidity
%
barometer
mb
20171118135203 49 172 3.0 11.0 0.00 0.00 0.00 73 1010.8
20171118134704 49 126 6.0 11.0 0.00 0.00 0.00 74 1010.8
20171118134203 49 299 0.0 1.0 0.00 0.00 0.00 93 1010.8
20171118133703 48 41 0.0 6.0 0.00 0.00 0.00 93 1011.1
20171118133203 47 75 1.0 6.0 0.00 0.00 0.00 93 1011.1
20171118132702 46 169 6.0 6.0 0.00 0.00 0.00 93 1011.1
20171118132204 46 148 1.0 3.0 0.00 0.00 0.00 93 1011.1
20171118131702 45 106 1.0 3.0 0.00 0.00 0.00 93 1011.1
20171118131203 45 120 0.0 2.0 0.00 0.00 0.00 93 1011.1
20171118130702 43 141 1.0 1.0 0.00 0.00 0.00 93 1011.4
20171118130205 43 110 0.0 0.0 0.00 0.00 0.00 93 1011.4
20171118125702 43 138 0.0 0.0 0.00 0.00 0.00 93 1011.4
20171118125202 41 160 0.0 0.0 0.00 0.00 0.00 93 1011.7
20171118124701 41 160 0.0 0.0 0.00 0.00 0.00 93 1011.7
20171118124201 39 316 0.0 0.0 0.00 0.00 0.00 93 1011.7
20171118123701 39 164 0.0 0.0 0.00 0.00 0.00 93 1012.0
20171118123201 39 182 0.0 0.0 0.00 0.00 0.00 93 1012.0
20171118122701 39 191 0.0 0.0 0.00 0.00 0.00 93 1012.0
20171118122201 39 181 0.0 0.0 0.00 0.00 0.00 93 1012.3
20171118121701 39 181 0.0 0.0 0.00 0.00 0.00 93 1012.3
20171118121200 39 181 0.0 0.0 0.00 0.00 0.00 93 1012.3
20171118120700 39 181 0.0 0.0 0.00 0.00 0.00 93 1012.3
20171118120200 39 181 0.0 0.0 0.00 0.00 0.00 93 1012.3
20171118115701 39 181 0.0 0.0 0.00 0.00 0.00 95 1012.3
20171118115200 39 181 0.0 1.0 0.00 0.00 0.00 95 1012.4
20171118114659 39 181 0.0 1.0 0.00 0.00 0.00 95 1012.4
20171118114159 39 181 1.0 1.0 0.00 0.00 0.00 96 1012.4
20171118113659 38 332 0.0 0.0 0.00 0.00 0.00 96 1012.8
20171118113159 38 325 0.0 0.0 0.00 0.00 0.00 98 1012.8
20171118112659 38 326 0.0 0.0 0.00 0.00 0.00 98 1012.8
20171118112159 37 326 0.0 0.0 0.00 0.00 0.00 98 1012.8
20171118111659 37 326 0.0 0.0 0.00 0.00 0.00 99 1012.8
20171118111159 37 326 0.0 0.0 0.00 0.00 0.00 99 1012.8
20171118110658 37 326 0.0 0.0 0.00 0.00 0.00 99 1013.2
20171118110158 36 326 0.0 0.0 0.00 0.00 0.00 99 1013.2
20171118105658 36 326 0.0 0.0 0.00 0.00 0.00 99 1013.2
20171118105158 36 326 0.0 0.0 0.00 0.00 0.00 99 1013.2
20171118104658 36 326 0.0 0.0 0.00 0.00 0.00 99 1013.2
20171118104158 36 326 0.0 0.0 0.00 0.00 0.00 99 1013.2
20171118103658 36 326 0.0 0.0 0.00 0.00 0.00 99 1013.4
20171118103157 35 326 0.0 0.0 0.00 0.00 0.00 98 1013.4
20171118102657 35 326 0.0 0.0 0.00 0.00 0.00 98 1013.4
20171118102157 35 326 0.0 0.0 0.00 0.00 0.00 97 1013.8
20171118101657 35 326 0.0 0.0 0.00 0.00 0.00 97 1013.8
20171118101157 34 326 0.0 0.0 0.00 0.00 0.00 97 1013.8
20171118100657 34 326 0.0 0.0 0.00 0.00 0.00 97 1013.7
20171118100156 34 326 0.0 0.0 0.00 0.00 0.00 97 1013.7
20171118095657 34 326 0.0 0.0 0.00 0.00 0.00 97 1013.7
20171118095156 34 326 0.0 0.0 0.00 0.00 0.00 97 1013.7
20171118094656 34 326 0.0 0.0 0.00 0.00 0.00 97 1013.7
20171118094156 34 326 0.0 0.0 0.00 0.00 0.00 97 1013.7
20171118093656 34 326 0.0 0.0 0.00 0.00 0.00 97 1013.9
20171118093156 35 326 0.0 0.0 0.00 0.00 0.00 97 1013.9
20171118092656 35 326 0.0 0.0 0.00 0.00 0.00 97 1013.9
20171118092227 35 326 0.0 0.0 0.00 0.00 0.00 97 1014.1
20171118091655 35 326 0.0 0.0 0.00 0.00 0.00 97 1014.1
20171118091155 36 326 0.0 0.0 0.00 0.00 0.00 97 1014.1
20171118090656 36 326 0.0 0.0 0.00 0.00 0.00 97 1014.2
20171118090155 36 326 0.0 0.0 0.00 0.00 0.00 97 1014.2
20171118085725 36 326 0.0 0.0 0.00 0.00 0.00 97 1014.2
20171118085155 36 326 0.0 0.0 0.00 0.00 0.00 97 1014.3
20171118084654 36 326 0.0 0.0 0.00 0.00 0.00 97 1014.3
20171118084154 36 326 0.0 0.0 0.00 0.00 0.00 97 1014.3
20171118083655 36 326 0.0 0.0 0.00 0.00 0.00 97 1013.9
20171118083224 36 326 0.0 0.0 0.00 0.00 0.00 97 1013.9
20171118082724 36 326 0.0 0.0 0.00 0.00 0.00 97 1013.9
20171118082154 36 326 0.0 0.0 0.00 0.00 0.00 97 1014.3
20171118081723 36 326 0.0 0.0 0.00 0.00 0.00 97 1014.3
20171118081154 36 326 0.0 0.0 0.00 0.00 0.00 97 1014.3
20171118080653 36 326 0.0 0.0 0.00 0.00 0.00 97 1014.4
20171118080223 37 326 0.0 0.0 0.00 0.00 0.00 97 1014.4
20171118075653 37 326 0.0 0.0 0.00 0.00 0.00 97 1014.4
20171118075223 37 326 0.0 0.0 0.00 0.00 0.00 97 1014.7
20171118074722 37 326 0.0 0.0 0.00 0.00 0.00 97 1014.7
20171118074222 36 326 0.0 0.0 0.00 0.00 0.00 95 1014.7
20171118073722 36 326 0.0 0.0 0.00 0.00 0.00 95 1014.9
20171118073152 36 326 0.0 0.0 0.00 0.00 0.00 95 1014.9
20171118072722 36 326 0.0 0.0 0.00 0.00 0.00 95 1014.9
20171118072223 36 326 0.0 0.0 0.00 0.00 0.00 95 1015.2
20171118071652 36 326 0.0 0.0 0.00 0.00 0.00 95 1015.2
20171118071221 36 326 0.0 0.0 0.00 0.00 0.00 95 1015.2
20171118070653 36 326 0.0 0.0 0.00 0.00 0.00 95 1015.2
20171118070221 35 326 0.0 0.0 0.00 0.00 0.00 95 1015.2
20171118065721 35 326 0.0 0.0 0.00 0.00 0.00 95 1015.2
20171118065221 35 326 0.0 0.0 0.00 0.00 0.00 95 1015.3
20171118064721 35 326 0.0 0.0 0.00 0.00 0.00 94 1015.3
20171118064221 35 326 0.0 0.0 0.00 0.00 0.00 94 1015.3
20171118063720 34 326 0.0 0.0 0.00 0.00 0.00 94 1015.3
20171118063221 34 326 0.0 0.0 0.00 0.00 0.00 94 1015.3
20171118062720 34 326 0.0 0.0 0.00 0.00 0.00 95 1015.3
20171118062220 34 326 0.0 0.0 0.00 0.00 0.00 95 1015.7
20171118061720 34 326 0.0 0.0 0.00 0.00 0.00 95 1015.7
20171118061220 34 326 0.0 0.0 0.00 0.00 0.00 95 1015.7
20171118060720 33 326 0.0 0.0 0.00 0.00 0.00 95 1015.8
20171118060219 33 326 0.0 0.0 0.00 0.00 0.00 95 1015.8
20171118055720 33 326 0.0 0.0 0.00 0.00 0.00 95 1015.8
20171118055219 33 326 0.0 0.0 0.00 0.00 0.00 95 1016.0
20171118054719 33 326 0.0 0.0 0.00 0.00 0.00 95 1016.0
20171118054219 33 326 0.0 0.0 0.00 0.00 0.00 95 1016.0
20171118053719 33 326 0.0 0.0 0.00 0.00 0.00 95 1016.1
20171118053219 33 326 0.0 0.0 0.00 0.00 0.00 95 1016.1
20171118052719 33 326 0.0 0.0 0.00 0.00 0.00 95 1016.1
20171118052218 33 326 0.0 0.0 0.00 0.00 0.00 95 1016.5
20171118051718 33 326 0.0 0.0 0.00 0.00 0.00 94 1016.5
20171118051218 33 326 0.0 0.0 0.00 0.00 0.00 94 1016.5
20171118050718 33 326 0.0 0.0 0.00 0.00 0.00 94 1016.4
20171118050221 33 326 0.0 0.0 0.00 0.00 0.00 94 1016.4
20171118045721 33 326 0.0 0.0 0.00 0.00 0.00 94 1016.4
20171118045221 33 326 0.0 0.0 0.00 0.00 0.00 94 1016.4
20171118044720 33 326 0.0 0.0 0.00 0.00 0.00 94 1016.4
20171118044220 33 326 0.0 0.0 0.00 0.00 0.00 94 1016.4
20171118043720 33 326 0.0 0.0 0.00 0.00 0.00 94 1016.4
20171118043220 33 326 0.0 0.0 0.00 0.00 0.00 94 1016.4
20171118042720 33 326 0.0 0.0 0.00 0.00 0.00 94 1016.4
20171118042220 33 326 0.0 0.0 0.00 0.00 0.00 93 1016.5
20171118041719 33 326 0.0 0.0 0.00 0.00 0.00 93 1016.5
20171118041219 33 326 0.0 0.0 0.00 0.00 0.00 93 1016.5
20171118040719 33 326 0.0 0.0 0.00 0.00 0.00 93 1016.5
20171118040219 33 326 0.0 0.0 0.00 0.00 0.00 92 1016.5
20171118035719 33 326 0.0 0.0 0.00 0.00 0.00 92 1016.5
20171118035219 33 326 0.0 0.0 0.00 0.00 0.00 92 1016.7
20171118034719 33 326 0.0 0.0 0.00 0.00 0.00 92 1016.7
20171118034219 33 326 0.0 0.0 0.00 0.00 0.00 92 1016.7
20171118033718 33 326 0.0 0.0 0.00 0.00 0.00 92 1017.1
20171118033218 34 326 0.0 0.0 0.00 0.00 0.00 92 1017.1
20171118032718 34 326 0.0 0.0 0.00 0.00 0.00 92 1017.1
20171118032218 34 326 0.0 0.0 0.00 0.00 0.00 92 1017.1
20171118031718 34 326 0.0 0.0 0.00 0.00 0.00 92 1017.1
20171118031218 34 326 0.0 0.0 0.00 0.00 0.00 91 1017.1
20171118030717 34 326 0.0 0.0 0.00 0.00 0.00 91 1017.2
20171118030217 34 326 0.0 0.0 0.00 0.00 0.00 91 1017.2
20171118025720 34 326 0.0 0.0 0.00 0.00 0.00 91 1017.2
20171118025217 34 326 0.0 0.0 0.00 0.00 0.00 91 1017.4
20171118024717 34 326 0.0 0.0 0.00 0.00 0.00 91 1017.4
20171118024217 34 326 0.0 0.0 0.00 0.00 0.00 91 1017.4
20171118023717 34 326 0.0 0.0 0.00 0.00 0.00 91 1017.2
20171118023216 34 326 0.0 0.0 0.00 0.00 0.00 91 1017.2
20171118022716 34 326 0.0 0.0 0.00 0.00 0.00 91 1017.2
20171118022216 34 326 0.0 0.0 0.00 0.00 0.00 91 1017.2
20171118021716 34 326 0.0 0.0 0.00 0.00 0.00 91 1017.2
20171118021216 34 326 0.0 0.0 0.00 0.00 0.00 91 1017.2
20171118020716 34 326 0.0 0.0 0.00 0.00 0.00 91 1017.1
20171118020216 34 326 0.0 0.0 0.00 0.00 0.00 90 1017.1
20171118015716 34 326 0.0 0.0 0.00 0.00 0.00 90 1017.1
20171118015215 34 326 0.0 0.0 0.00 0.00 0.00 90 1017.3
20171118014716 35 326 0.0 0.0 0.00 0.00 0.00 90 1017.3
20171118014215 35 326 0.0 0.0 0.00 0.00 0.00 90 1017.3
20171118013715 35 326 0.0 0.0 0.00 0.00 0.00 90 1017.4
20171118013215 35 328 0.0 0.0 0.00 0.00 0.00 89 1017.4
20171118012715 35 328 0.0 0.0 0.00 0.00 0.00 89 1017.4
20171118012214 35 328 0.0 0.0 0.00 0.00 0.00 89 1017.5
20171118011715 35 328 0.0 0.0 0.00 0.00 0.00 89 1017.5
20171118011214 35 328 0.0 0.0 0.00 0.00 0.00 89 1017.5
20171118010714 35 328 0.0 0.0 0.00 0.00 0.00 89 1017.4
20171118010214 35 328 0.0 0.0 0.00 0.00 0.00 89 1017.4
20171118005714 36 328 0.0 0.0 0.00 0.00 0.00 86 1017.4
20171118005214 36 328 0.0 0.0 0.00 0.00 0.00 86 1017.5
20171118004713 36 328 0.0 0.0 0.00 0.00 0.00 86 1017.5
20171118004213 36 328 0.0 0.0 0.00 0.00 0.00 86 1017.5
20171118003713 36 328 0.0 0.0 0.00 0.00 0.00 86 1017.9
20171118003213 36 328 0.0 0.0 0.00 0.00 0.00 86 1017.9
20171118002713 36 328 0.0 0.0 0.00 0.00 0.00 86 1017.9
20171118002213 36 328 0.0 0.0 0.00 0.00 0.00 87 1017.9
20171118001713 36 328 0.0 0.0 0.00 0.00 0.00 84 1017.9
20171118001212 37 328 0.0 0.0 0.00 0.00 0.00 84 1017.9
20171118000712 37 328 0.0 0.0 0.00 0.00 0.00 84 1017.9
20171118000212 37 328 0.0 0.0 0.00 0.00 0.00 84 1017.9
20171117235712 37 328 0.0 0.0 0.00 0.00 0.00 84 1017.9
20171117235212 37 328 0.0 0.0 0.00 0.00 0.00 84 1018.0
20171117234712 38 328 0.0 0.0 0.00 0.00 0.00 81 1018.0
20171117234211 38 328 0.0 0.0 0.00 0.00 0.00 81 1018.0
20171117233711 38 328 0.0 0.0 0.00 0.00 0.00 81 1018.0
20171117233211 38 328 0.0 0.0 0.00 0.00 0.00 78 1018.0
20171117232711 38 328 0.0 0.0 0.00 0.00 0.00 78 1018.0
20171117232211 39 328 0.0 0.0 0.00 0.00 0.00 78 1018.0
20171117231712 39 328 0.0 0.0 0.00 0.00 0.00 78 1018.0
20171117231211 40 328 0.0 0.0 0.00 0.00 0.00 78 1018.0
20171117230711 40 328 0.0 0.0 0.00 0.00 0.00 78 1018.0
20171117230210 40 328 0.0 0.0 0.00 0.00 0.00 78 1018.0
20171117225711 41 328 0.0 0.0 0.00 0.00 0.00 75 1018.0
20171117225210 41 328 0.0 0.0 0.00 0.00 0.00 75 1018.0
20171117224710 41 328 0.0 0.0 0.00 0.00 0.00 75 1018.0
20171117224210 42 328 0.0 0.0 0.00 0.00 0.00 69 1018.0
20171117223710 42 328 0.0 0.0 0.00 0.00 0.00 69 1017.9
20171117223209 42 328 0.0 0.0 0.00 0.00 0.00 69 1017.9
20171117222709 43 328 0.0 0.0 0.00 0.00 0.00 69 1017.9
20171117222211 44 328 0.0 0.0 0.00 0.00 0.00 69 1017.7
20171117221709 44 328 0.0 0.0 0.00 0.00 0.00 69 1017.7
20171117221209 44 328 0.0 0.0 0.00 0.00 0.00 69 1017.7
20171117220709 45 328 0.0 0.0 0.00 0.00 0.00 66 1018.0
20171117220209 46 328 0.0 0.0 0.00 0.00 0.00 66 1018.0
20171117215709 46 328 0.0 0.0 0.00 0.00 0.00 66 1018.0
20171117215209 46 328 0.0 0.0 0.00 0.00 0.00 66 1017.8
20171117214708 47 328 0.0 0.0 0.00 0.00 0.00 63 1017.8
20171117214208 48 328 0.0 0.0 0.00 0.00 0.00 60 1017.8
20171117213708 48 328 0.0 0.0 0.00 0.00 0.00 60 1017.8
20171117213208 48 328 0.0 0.0 0.00 0.00 0.00 59 1017.8
20171117212708 48 328 0.0 0.0 0.00 0.00 0.00 58 1017.8
20171117212207 49 328 0.0 0.0 0.00 0.00 0.00 58 1017.7
20171117211707 49 328 0.0 0.0 0.00 0.00 0.00 56 1017.7
20171117211207 49 328 0.0 0.0 0.00 0.00 0.00 56 1017.7
20171117210707 49 328 0.0 1.0 0.00 0.00 0.00 56 1017.6
20171117210207 49 328 0.0 2.0 0.00 0.00 0.00 56 1017.6
20171117205708 49 328 0.0 2.0 0.00 0.00 0.00 56 1017.6
20171117205206 49 328 2.0 3.0 0.00 0.00 0.00 55 1017.5
20171117204706 49 320 0.0 3.0 0.00 0.00 0.00 55 1017.5
20171117204206 49 320 0.0 2.0 0.00 0.00 0.00 54 1017.5
20171117203706 49 320 1.0 3.0 0.00 0.00 0.00 54 1017.5
20171117203207 50 320 1.0 3.0 0.00 0.00 0.00 54 1017.5
20171117202706 50 329 3.0 3.0 0.00 0.00 0.00 52 1017.5
20171117202206 50 320 2.0 2.0 0.00 0.00 0.00 52 1017.6
20171117201706 50 289 0.0 6.0 0.00 0.00 0.00 52 1017.6
20171117201206 50 292 0.0 6.0 0.00 0.00 0.00 52 1017.6
20171117200705 50 319 3.0 5.0 0.00 0.00 0.00 51 1017.5
20171117200205 50 323 1.0 6.0 0.00 0.00 0.00 51 1017.5
20171117195705 50 326 5.0 6.0 0.00 0.00 0.00 52 1017.5
20171117195205 50 10 1.0 2.0 0.00 0.00 0.00 50 1017.4
20171117194705 50 301 1.0 2.0 0.00 0.00 0.00 50 1017.4
20171117194205 50 306 1.0 5.0 0.00 0.00 0.00 50 1017.4
20171117193705 50 336 2.0 5.0 0.00 0.00 0.00 50 1017.4
20171117193204 50 319 2.0 3.0 0.00 0.00 0.00 51 1017.4
20171117192705 50 319 0.0 5.0 0.00 0.00 0.00 51 1017.4
20171117192204 50 325 3.0 5.0 0.00 0.00 0.00 51 1017.4
20171117191704 50 311 2.0 5.0 0.00 0.00 0.00 51 1017.4
20171117191204 50 329 3.0 5.0 0.00 0.00 0.00 51 1017.4
20171117190703 50 309 3.0 6.0 0.00 0.00 0.00 51 1017.8
20171117190203 50 302 0.0 6.0 0.00 0.00 0.00 51 1017.8
20171117185704 50 330 3.0 5.0 0.00 0.00 0.00 51 1017.8
20171117185203 50 342 0.0 6.0 0.00 0.00 0.00 51 1017.8
20171117184703 50 322 5.0 6.0 0.00 0.00 0.00 51 1017.8
20171117184203 50 304 6.0 6.0 0.00 0.00 0.00 51 1017.8
20171117183703 50 296 6.0 6.0 0.00 0.00 0.00 51 1018.0
20171117183202 50 312 5.0 5.0 0.00 0.00 0.00 51 1018.0
20171117182703 50 337 3.0 3.0 0.00 0.00 0.00 52 1018.0
20171117182203 50 320 1.0 3.0 0.00 0.00 0.00 52 1018.1
20171117181702 50 309 2.0 3.0 0.00 0.00 0.00 52 1018.1
20171117181202 50 326 3.0 7.0 0.00 0.00 0.00 53 1018.1
20171117180702 50 356 3.0 7.0 0.00 0.00 0.00 53 1018.0
20171117180202 50 332 7.0 7.0 0.00 0.00 0.00 53 1018.0
20171117175702 50 326 1.0 7.0 0.00 0.00 0.00 53 1018.0
20171117175202 50 340 2.0 7.0 0.00 0.00 0.00 53 1018.3
20171117174701 49 284 6.0 6.0 0.00 0.00 0.00 53 1018.3
20171117174201 49 306 3.0 6.0 0.00 0.00 0.00 53 1018.3
20171117173701 49 309 5.0 5.0 0.00 0.00 0.00 53 1018.4
20171117173201 49 304 2.0 2.0 0.00 0.00 0.00 53 1018.4
20171117172700 49 301 2.0 8.0 0.00 0.00 0.00 53 1018.4
20171117172201 49 301 2.0 8.0 0.00 0.00 0.00 53 1018.6
20171117171700 49 329 3.0 3.0 0.00 0.00 0.00 56 1018.6
20171117171200 49 288 2.0 8.0 0.00 0.00 0.00 56 1018.6
20171117170200 49 323 3.0 3.0 0.00 0.00 0.00 56 1018.9
20171117165700 49 323 3.0 3.0 0.00 0.00 0.00 56 1018.9
20171117164700 48 323 3.0 3.0 0.00 0.00 0.00 57 1018.9
20171117164200 48 323 3.0 5.0 0.00 0.00 0.00 57 1018.9
20171117163659 48 337 1.0 10.0 0.00 0.00 0.00 57 1019.0
20171117163159 49 318 5.0 10.0 0.00 0.00 0.00 57 1019.0
20171117162659 49 340 2.0 6.0 0.00 0.00 0.00 58 1019.0
20171117161659 48 289 5.0 5.0 0.00 0.00 0.00 58 1019.2
20171117161158 49 359 1.0 7.0 0.00 0.00 0.00 58 1019.2
20171117160658 49 330 5.0 7.0 0.00 0.00 0.00 58 1019.3
20171117160158 49 288 7.0 7.0 0.00 0.00 0.00 58 1019.3
20171117155658 49 304 0.0 5.0 0.00 0.00 0.00 58 1019.3
20171117155158 49 32 0.0 5.0 0.00 0.00 0.00 58 1019.4
20171117154658 49 284 5.0 5.0 0.00 0.00 0.00 58 1019.4
20171117154158 49 68 1.0 7.0 0.00 0.00 0.00 58 1019.4
20171117153658 49 322 3.0 7.0 0.00 0.00 0.00 57 1019.5
20171117153158 49 335 7.0 7.0 0.00 0.00 0.00 57 1019.5
20171117152658 49 316 2.0 7.0 0.00 0.00 0.00 56 1019.5
20171117151657 49 102 5.0 5.0 0.00 0.00 0.00 56 1019.6
20171117151158 49 102 5.0 5.0 0.00 0.00 0.00 56 1019.6
20171117150157 48 69 1.0 7.0 0.00 0.00 0.00 57 1019.6
20171117145657 48 189 2.0 7.0 0.00 0.00 0.00 58 1019.6
20171117145156 48 65 2.0 3.0 0.00 0.00 0.00 58 1019.7
20171117144156 48 223 1.0 3.0 0.00 0.00 0.00 58 1019.7
20171117143656 48 223 1.0 7.0 0.00 0.00 0.00 58 1019.5
20171117143155 48 65 3.0 7.0 0.00 0.00 0.00 58 1019.5
20171117142656 48 299 7.0 7.0 0.00 0.00 0.00 69 1019.5
20171117142155 48 128 2.0 8.0 0.00 0.00 0.00 69 1019.3
20171117141655 48 110 5.0 8.0 0.00 0.00 0.00 69 1019.3
20171117141155 48 100 2.0 3.0 0.00 0.00 0.00 69 1019.3
20171117140655 47 85 1.0 2.0 0.00 0.00 0.00 69 1019.4
20171117140225 47 66 2.0 2.0 0.00 0.00 0.00 69 1019.4
20171117135725 47 66 2.0 2.0 0.00 0.00 0.00 69 1019.4